Flag for USA

Past Weather in 46°18'30.9"N, 94°18'54.8"W, USA — Yesterday and Last 2 Weeks

Currently: 61 °F. Clear. (Weather station: Sauk Centre, USA). See more current weather

Past Weather in 46°18'30.9"N, 94°18'54.8"W — Graph

°F

46°18'30.9"N, 94°18'54.8"W Temperature Yesterday

Maximum temperature yesterday: 81 °F (at 3:35 pm)
Minimum temperature yesterday: 62 °F (at 11:15 pm)
Average temperature yesterday: 71 °F

High & Low Weather Summary for the Past Weeks

 TemperatureHumidityPressure
High86 °F (Jul 14, 3:35 pm)100% (Jul 2, 2:15 am)30.25 "Hg (Jul 2, 2:15 am)
Low54 °F (Jul 1, 12:55 am)39% (Jul 3, 4:55 pm)29.72 "Hg (Jul 2, 6:15 pm)
Average69 °F79%29.93 "Hg
* Reported Jun 30 11:15 pm — Jul 15 11:35 pm, 46°18'30.9"N, 94°18'54.8"W. Weather by CustomWeather, © 2024

Note: Actual official high and low records may vary slightly from our data, if they occured in-between our weather recording intervals... More about our weather records

46°18'30.9"N, 94°18'54.8"W Weather History for the Previous 24 Hours

Scroll right to see more
 ConditionsComfort  
Time TempWeatherWind HumidityBarometerVisibility
11:35 pm
Mon, Jul 15
62 °FClear.No wind90%29.86 "Hg10 mi
11:15 pm62 °FClear.No wind95%29.85 "Hg10 mi
10:55 pm63 °FClear.3 mph90%29.85 "Hg10 mi
10:35 pm65 °FClear.No wind80%29.84 "Hg10 mi
10:15 pm65 °FClear.No wind76%29.83 "Hg10 mi
9:55 pm67 °FClear.5 mph70%29.83 "Hg10 mi
9:35 pm68 °FClear.6 mph68%29.82 "Hg10 mi
9:15 pm69 °FClear.7 mph64%29.81 "Hg10 mi
8:35 pm72 °FSunny.12 mph56%29.78 "Hg10 mi
7:55 pm75 °FSunny.15 mph56%29.78 "Hg10 mi
7:35 pm76 °FSunny.17 mph55%29.78 "Hg10 mi
7:15 pm76 °FScattered clouds.15 mph59%29.77 "Hg10 mi
6:55 pm77 °FScattered clouds.14 mph58%29.77 "Hg10 mi
6:35 pm78 °FScattered clouds.14 mph58%29.78 "Hg10 mi
6:15 pm78 °FSunny.18 mph58%29.78 "Hg10 mi
5:55 pm78 °FSunny.16 mph59%29.78 "Hg10 mi
5:15 pm79 °FScattered clouds.17 mph60%29.78 "Hg10 mi
4:55 pm80 °FBroken clouds.17 mph60%29.78 "Hg10 mi
4:35 pm79 °FScattered clouds.16 mph62%29.78 "Hg10 mi
4:15 pm79 °FBroken clouds.16 mph63%29.78 "Hg10 mi
3:55 pm81 °FScattered clouds.16 mph63%29.77 "Hg10 mi
3:35 pm81 °FScattered clouds.12 mph63%29.77 "Hg10 mi
2:55 pm80 °FBroken clouds.12 mph67%29.77 "Hg10 mi
2:35 pm80 °FPartly sunny.10 mph70%29.77 "Hg10 mi
2:15 pm79 °FCloudy.9 mph74%29.76 "Hg10 mi
1:55 pm78 °FPartly sunny.13 mph75%29.76 "Hg10 mi
1:35 pm78 °FPartly sunny.12 mph74%29.76 "Hg10 mi
1:15 pm78 °FPartly sunny.15 mph74%29.76 "Hg10 mi
12:35 pm78 °FMostly cloudy.13 mph77%29.76 "Hg10 mi
12:15 pm76 °FBroken clouds.13 mph78%29.77 "Hg10 mi
11:55 am77 °FPartly sunny.9 mph79%29.76 "Hg10 mi
11:35 am75 °FPartly sunny.9 mph79%29.77 "Hg10 mi
11:15 am75 °FScattered clouds.12 mph80%29.77 "Hg10 mi
10:35 am73 °FPartly sunny.13 mph80%29.77 "Hg10 mi
10:15 am69 °FScattered clouds.10 mph89%29.78 "Hg10 mi
9:55 am69 °FScattered clouds.13 mph92%29.78 "Hg10 mi
9:35 am68 °FScattered clouds.3 mph99%29.78 "Hg10 mi
8:55 am69 °FSunny.12 mph96%29.78 "Hg10 mi
8:15 am67 °FPartly sunny.12 mph100%29.82 "Hg10 mi
7:55 am66 °FScattered clouds.8 mph100%29.82 "Hg10 mi
7:35 am66 °FScattered clouds.6 mph100%29.82 "Hg7 mi
7:15 am66 °FScattered clouds.No wind100%29.82 "Hg10 mi
6:55 am67 °FThundershowers. Scattered clouds.No wind100%29.81 "Hg10 mi
6:35 am67 °FThunderstorms. Sunny.10 mph100%29.82 "Hg10 mi
5:55 am67 °FLight rain. Broken clouds.5 mph100%29.82 "Hg10 mi
5:35 am67 °FRain. Partly cloudy.5 mph100%29.83 "Hg10 mi
5:15 am67 °FLight rain. Partly cloudy.5 mph100%29.84 "Hg10 mi
4:55 am67 °FPassing clouds.10 mph100%29.87 "Hg10 mi
4:35 am65 °FClear.3 mph100%29.78 "Hg10 mi
4:15 am64 °FClear.No wind100%29.82 "Hg10 mi
3:35 am64 °FClear.No wind100%29.82 "Hg10 mi
3:15 am65 °FClear.No wind100%29.82 "Hg10 mi
2:15 am65 °FClear.5 mph100%29.84 "Hg10 mi
1:55 am64 °FClear.No wind100%29.84 "Hg10 mi
1:35 am64 °FClear.3 mph100%29.85 "Hg10 mi
1:15 am64 °FFog.No wind100%29.85 "Hg5 mi
12:55 am65 °FClear.No wind100%29.87 "Hg7 mi
12:35 am65 °FClear.No wind100%29.87 "Hg10 mi
12:15 am66 °FClear.No wind100%29.87 "Hg10 mi
Weather by CustomWeather, © 2024

See weather overview